Historyczne dane pomiarowe

Dodano dane terminowe – wersja testowa.

Dane z okresu 1951-2019

Wersja bazy: 1.34 [2019-03-16, lista zmian], aktualizacja planowana na 2019-04-15

Dane meteo z obszaru Polski uzyskane na podstawie danych udostępnionych przez Instytut Meteorologii i Gospodarki Wodnej – Państwowy Instytut Badawczy.

 

Wybierz Datę:    

       

TemperaturaWilgotnośćWiatrCiśnienieOpadyŚniegCzas trwania zjawisk
 Stacja t tx tn tng RH VA  wxwx mslp ppp RRR   cm mm wxwxwxwxwxwxwx
1996-08-13 19.3 25.0 17.0- 71.0- 6.3 2.7---- 4.0------------
1996-08-14 16.8 20.5 14.1- 81.3- 7.0 3.0---- 4.5------------
1996-08-15 14.8 18.4 12.8- 86.8- 6.3 3.0---- 0.3------------
1996-08-16 15.9 22.0 12.2- 83.3- 4.0 3.0---- 0.0------------
1996-08-17 17.4 24.0 12.4- 84.3- 3.3 2.7---- 0.0------------
1996-08-18 17.9 25.0 14.2- 84.5- 2.7 2.3---- 0.0------------
1996-08-19 18.0 27.0 12.3- 80.3- 1.7 2.3---- 0.0------------
1996-08-20 19.8 26.9 11.5- 61.0- 1.0 1.3---- 0.0------------
1996-08-21 20.2 28.0 10.8- 61.3- 3.0 1.3---- 0.0------------
1996-08-22 19.9 25.0 14.4- 73.8- 7.0 1.0---- 1.0------------
1996-08-23 21.4 27.9 17.1- 70.8- 2.3 1.0---- 0.0------------
1996-08-24 21.0 29.2 13.6- 66.5- 3.0 2.0---- 0.0------------
1996-08-25 20.6 29.9 13.4- 72.8- 4.0 3.0---- 18.2------------
1996-08-26 15.7 21.1 13.3- 90.3- 8.0 2.0---- 11.2------------
1996-08-27 15.3 22.0 9.1- 80.0- 4.0 2.0---- 1.1------------
1996-08-28 19.5 24.8 14.5- 78.0- 5.0 1.7---- 0.6------------
1996-08-29 17.9 22.2 16.0- 90.5- 6.0 2.0---- 0.0------------
1996-08-30 16.2 21.9 12.8- 85.8- 6.0 2.7---- 12.4------------
1996-08-31 16.7 21.2 14.1- 75.3- 5.0 1.0---- 0.0------------
1996-09-01 13.3 17.1 9.2- 89.3- 6.7 2.0---- 0.6------------
1996-09-02 14.8 18.9 13.1- 88.3- 5.0 2.0---- 0.0------------
1996-09-03 14.8 20.0 11.8- 85.0- 3.3 1.7---- 1.6------------
1996-09-04 13.7 18.0 7.6- 86.8- 6.0 1.3---- 0.0------------
1996-09-05 10.1 14.1 7.3- 87.8- 6.7 1.7---- 0.0------------
1996-09-06 9.8 14.0 5.2- 86.8- 4.7 2.7---- 4.2------------
1996-09-07 11.6 14.1 10.0- 87.5- 5.0 2.7---- 0.0------------
1996-09-08 11.0 13.5 9.9- 83.3- 6.3 6.0---- 0.0------------
1996-09-09 7.9 11.0 4.2- 88.0- 7.0 2.7---- 0.6------------
1996-09-10 8.6 12.9 5.5- 85.3- 5.7 2.7---- 0.0------------
1996-09-11 7.3 9.9 6.2- 81.5- 4.0 2.0---- 0.0------------
213.4 ms

 

Źródłem pochodzenia danych jest Instytut Meteorologii i Gospodarki Wodnej – Państwowy Instytut Badawczy. Dane Instytutu Meteorologii i Gospodarki Wodnej – Państwowego Instytutu Badawczego zostały przetworzone.

Dane źródłowe można odnaleźć na stronie https://dane.imgw.pl